createdAt,value
2022-08-14T00:01:57.635Z,1.40
2022-08-14T00:04:34.106Z,1.55
2022-08-14T00:07:06.046Z,1.52
2022-08-14T00:09:34.092Z,1.55
2022-08-14T00:12:24.055Z,1.40
2022-08-14T00:14:53.150Z,1.50
2022-08-14T00:17:22.349Z,1.67
2022-08-14T00:19:48.986Z,1.40
2022-08-14T00:22:44.254Z,1.52
2022-08-14T00:25:10.006Z,1.40
2022-08-14T00:27:37.641Z,1.50
2022-08-14T00:30:10.880Z,1.30
2022-08-14T00:32:52.652Z,1.30
2022-08-14T00:36:34.296Z,1.33
2022-08-14T00:38:10.370Z,1.40
2022-08-14T00:40:37.070Z,1.42
2022-08-14T00:43:04.336Z,1.50
2022-08-14T00:45:31.454Z,1.27
2022-08-14T00:47:58.422Z,1.40
2022-08-14T00:50:28.667Z,1.20
2022-08-14T00:52:56.554Z,1.45
2022-08-14T00:55:23.924Z,1.40
2022-08-14T00:58:10.807Z,1.30
2022-08-14T01:00:50.890Z,1.50
2022-08-14T01:03:20.277Z,1.50
2022-08-14T01:05:52.169Z,1.27
2022-08-14T01:08:51.434Z,1.38
2022-08-14T01:11:09.793Z,1.30
2022-08-14T01:13:42.658Z,1.40
2022-08-14T01:16:13.925Z,1.33
2022-08-14T01:19:02.112Z,1.45
2022-08-14T01:21:34.733Z,1.30
2022-08-14T01:24:10.978Z,1.50
2022-08-14T01:26:39.221Z,1.35
2022-08-14T01:29:06.585Z,1.20
2022-08-14T01:31:56.712Z,1.30
2022-08-14T01:35:17.635Z,1.30
2022-08-14T01:37:12.840Z,1.30
2022-08-14T01:39:43.267Z,1.20
2022-08-14T01:42:10.192Z,1.45
2022-08-14T01:44:57.561Z,1.30
2022-08-14T01:47:25.336Z,1.50
2022-08-14T01:49:59.330Z,1.17
2022-08-14T01:52:34.505Z,1.35
2022-08-14T01:55:18.045Z,1.42
2022-08-14T01:58:00.328Z,1.20
2022-08-14T02:00:29.596Z,1.20
2022-08-14T02:03:02.605Z,1.30
2022-08-14T02:05:35.585Z,1.20
2022-08-14T02:08:09.155Z,1.20
2022-08-14T02:10:46.003Z,1.55
2022-08-14T02:13:13.949Z,1.35
2022-08-14T02:15:43.520Z,1.20
2022-08-14T02:18:11.657Z,1.10
2022-08-14T02:20:39.333Z,1.05
2022-08-14T02:23:08.389Z,1.00
2022-08-14T02:25:36.160Z,1.50
2022-08-14T02:28:22.507Z,1.20
2022-08-14T02:30:52.677Z,1.30
2022-08-14T02:33:22.510Z,1.10
2022-08-14T02:35:53.387Z,1.20
2022-08-14T02:38:34.319Z,1.33
2022-08-14T02:41:02.425Z,1.10
2022-08-14T02:43:48.190Z,1.10
2022-08-14T02:46:20.633Z,1.08
2022-08-14T02:49:04.320Z,1.42
2022-08-14T02:51:34.011Z,1.27
2022-08-14T02:54:01.741Z,1.20
2022-08-14T02:57:14.400Z,1.40
2022-08-14T02:59:17.569Z,1.30
2022-08-14T03:01:50.653Z,1.20
2022-08-14T03:04:21.903Z,1.10
2022-08-14T03:06:57.781Z,1.30
2022-08-14T03:10:26.165Z,1.30
2022-08-14T03:12:31.582Z,0.98
2022-08-14T03:15:13.904Z,1.25
2022-08-14T03:17:57.074Z,1.23
2022-08-14T03:20:25.811Z,1.20
2022-08-14T03:22:52.728Z,1.38
2022-08-14T03:25:22.076Z,1.15
2022-08-14T03:27:58.331Z,1.20
2022-08-14T03:30:39.756Z,1.05
2022-08-14T03:33:11.129Z,1.15
2022-08-14T03:36:05.677Z,1.27
2022-08-14T03:39:10.930Z,1.15
2022-08-14T03:41:18.849Z,1.20
2022-08-14T03:43:47.651Z,1.27
2022-08-14T03:46:52.124Z,1.30
2022-08-14T03:49:14.347Z,1.00
2022-08-14T03:51:51.482Z,1.20
2022-08-14T03:54:20.803Z,1.10
2022-08-14T03:56:50.311Z,0.98
2022-08-14T03:59:18.077Z,1.25
2022-08-14T04:01:57.948Z,1.35
2022-08-14T04:04:32.129Z,1.20
2022-08-14T04:07:00.425Z,1.10
2022-08-14T04:09:27.713Z,1.10
2022-08-14T04:11:56.157Z,1.27
2022-08-14T04:14:24.847Z,1.17
2022-08-14T04:16:51.523Z,1.23
2022-08-14T04:19:23.682Z,1.10
2022-08-14T04:22:03.566Z,1.20
2022-08-14T04:24:37.767Z,1.23
2022-08-14T04:27:10.048Z,1.30
2022-08-14T04:29:42.626Z,1.10
2022-08-14T04:33:00.066Z,1.25
2022-08-14T04:34:57.584Z,1.23
2022-08-14T04:37:45.291Z,1.30
2022-08-14T04:40:32.366Z,1.15
2022-08-14T04:43:17.800Z,1.20
2022-08-14T04:45:44.889Z,1.20
2022-08-14T04:48:39.113Z,1.02
2022-08-14T04:51:03.472Z,1.48
2022-08-14T04:53:34.649Z,0.90
2022-08-14T04:56:03.204Z,1.10
2022-08-14T04:58:34.133Z,1.20
2022-08-14T05:01:05.291Z,1.20
2022-08-14T05:03:39.807Z,1.10
2022-08-14T05:06:38.272Z,1.13
2022-08-14T05:08:59.677Z,1.15
2022-08-14T05:11:26.651Z,1.20
2022-08-14T05:14:33.976Z,1.10
2022-08-14T05:16:39.904Z,1.38
2022-08-14T05:19:18.891Z,2.72
2022-08-14T05:22:15.568Z,2.85
2022-08-14T05:24:43.053Z,2.95
2022-08-14T05:27:10.447Z,3.28
2022-08-14T05:29:37.262Z,3.75
2022-08-14T05:32:07.759Z,3.80
2022-08-14T05:34:34.579Z,2.72
2022-08-14T05:37:03.243Z,2.90
2022-08-14T05:39:31.695Z,3.88
2022-08-14T05:41:59.075Z,3.53
2022-08-14T05:44:30.189Z,3.10
2022-08-14T05:46:58.510Z,3.15
2022-08-14T05:49:32.848Z,3.00
2022-08-14T05:52:01.872Z,3.30
2022-08-14T05:54:35.240Z,3.30
2022-08-14T05:57:04.569Z,3.30
2022-08-14T05:59:38.706Z,3.25
2022-08-14T06:02:07.560Z,2.90
2022-08-14T06:04:37.076Z,2.95
2022-08-14T06:07:04.288Z,3.20
2022-08-14T06:09:35.496Z,3.20
2022-08-14T06:12:03.250Z,3.25
2022-08-14T06:14:31.159Z,3.17
2022-08-14T06:16:57.812Z,3.63
2022-08-14T06:19:24.674Z,3.55
2022-08-14T06:21:58.108Z,3.55
2022-08-14T06:24:26.057Z,3.50
2022-08-14T06:26:56.768Z,3.60
2022-08-14T06:29:32.380Z,3.45
2022-08-14T06:32:36.613Z,3.45
2022-08-14T06:35:02.915Z,3.53
2022-08-14T06:37:47.040Z,3.40
2022-08-14T06:40:26.682Z,3.78
2022-08-14T06:43:03.149Z,3.53
2022-08-14T06:45:42.054Z,3.33
2022-08-14T06:48:17.173Z,3.05
2022-08-14T06:50:45.380Z,3.20
2022-08-14T06:53:14.468Z,3.05
2022-08-14T06:55:58.179Z,3.58
2022-08-14T06:58:29.256Z,3.25
2022-08-14T07:01:15.987Z,3.53
2022-08-14T07:04:01.398Z,3.10
2022-08-14T07:06:46.404Z,3.03
2022-08-14T07:09:19.811Z,2.70
2022-08-14T07:11:49.560Z,3.08
2022-08-14T07:14:16.469Z,3.17
2022-08-14T07:16:43.339Z,2.88
2022-08-14T07:19:11.429Z,3.05
2022-08-14T07:21:39.465Z,3.08
2022-08-14T07:24:06.673Z,2.97
2022-08-14T07:26:38.867Z,2.60
2022-08-14T07:29:07.823Z,3.08
2022-08-14T07:31:34.592Z,2.67
2022-08-14T07:34:04.078Z,3.00
2022-08-14T07:36:31.231Z,2.60
2022-08-14T07:39:03.095Z,2.97
2022-08-14T07:41:31.184Z,2.70
2022-08-14T07:44:28.868Z,2.78
2022-08-14T07:46:48.614Z,2.90
2022-08-14T07:49:17.723Z,2.75
2022-08-14T07:51:45.832Z,2.75
2022-08-14T07:54:23.459Z,2.80
2022-08-14T07:57:12.131Z,2.63
2022-08-14T07:59:43.724Z,2.50
2022-08-14T08:04:49.490Z,2.58
2022-08-14T08:07:16.939Z,2.45
2022-08-14T08:09:53.121Z,2.35
2022-08-14T08:12:24.969Z,2.80
2022-08-14T08:15:03.183Z,2.72
2022-08-14T08:17:38.608Z,2.97
2022-08-14T08:20:12.472Z,2.65
2022-08-14T08:22:43.349Z,2.92
2022-08-14T08:25:17.780Z,2.30
2022-08-14T08:27:55.194Z,2.55
2022-08-14T08:30:22.177Z,2.53
2022-08-14T08:32:52.428Z,2.65
2022-08-14T08:35:22.234Z,2.20
2022-08-14T08:38:01.204Z,2.55
2022-08-14T08:40:35.662Z,2.42
2022-08-14T08:43:23.860Z,2.50
2022-08-14T08:46:21.036Z,2.33
2022-08-14T08:51:34.285Z,2.42
2022-08-14T08:54:15.369Z,2.60
2022-08-14T08:56:48.867Z,2.33
2022-08-14T08:59:19.048Z,2.60
2022-08-14T09:01:51.473Z,2.30
2022-08-14T09:04:23.365Z,2.35
2022-08-14T09:07:00.430Z,2.30
2022-08-14T09:09:54.431Z,2.15
2022-08-14T09:12:32.222Z,2.40
2022-08-14T09:15:11.889Z,2.15
2022-08-14T09:17:41.294Z,2.08
2022-08-14T09:20:11.604Z,2.10
2022-08-14T09:22:42.439Z,1.95
2022-08-14T09:25:15.904Z,2.20
2022-08-14T09:27:42.581Z,2.20
2022-08-14T09:30:31.073Z,2.10
2022-08-14T09:33:11.178Z,2.40
2022-08-14T09:36:09.053Z,2.25
2022-08-14T09:38:47.526Z,2.10
2022-08-14T09:42:21.275Z,1.90
2022-08-14T09:44:49.747Z,2.22
2022-08-14T09:47:17.214Z,2.00
2022-08-14T09:49:52.271Z,2.28
2022-08-14T09:52:33.228Z,1.92
2022-08-14T09:55:02.807Z,2.00
2022-08-14T09:57:31.072Z,2.30
2022-08-14T09:59:58.390Z,2.08
2022-08-14T10:02:28.484Z,2.03
2022-08-14T10:05:10.889Z,1.85
2022-08-14T10:07:58.945Z,2.13
2022-08-14T10:10:39.591Z,2.10
2022-08-14T10:13:24.524Z,2.13
2022-08-14T10:15:52.292Z,1.90
2022-08-14T10:18:21.279Z,2.50
2022-08-14T10:21:00.672Z,2.15
2022-08-14T10:23:38.608Z,2.80
2022-08-14T10:26:08.167Z,2.90
2022-08-14T10:29:14.077Z,2.65
2022-08-14T10:31:40.298Z,2.47
2022-08-14T10:34:14.046Z,2.63
2022-08-14T10:36:49.898Z,2.50
2022-08-14T10:39:18.644Z,2.65
2022-08-14T10:41:49.205Z,2.70
2022-08-14T10:44:25.319Z,2.60
2022-08-14T10:47:41.004Z,2.55
2022-08-14T10:49:57.904Z,2.30
2022-08-14T10:52:34.609Z,2.65
2022-08-14T10:55:09.266Z,2.53
2022-08-14T10:57:54.728Z,2.50
2022-08-14T11:03:13.185Z,2.60
2022-08-14T11:05:49.371Z,2.55
2022-08-14T11:08:31.797Z,2.78
2022-08-14T11:11:01.989Z,2.50
2022-08-14T11:13:30.662Z,2.75
2022-08-14T11:16:02.439Z,2.53
2022-08-14T11:18:35.846Z,2.78
2022-08-14T11:21:09.369Z,2.47
2022-08-14T11:23:43.903Z,2.40
2022-08-14T11:26:11.950Z,2.38
2022-08-14T11:28:47.461Z,2.75
2022-08-14T11:31:23.447Z,2.47
2022-08-14T11:33:55.089Z,2.63
2022-08-14T11:36:35.347Z,2.90
2022-08-14T11:39:34.265Z,2.70
2022-08-14T11:42:55.533Z,2.28
2022-08-14T11:44:56.632Z,2.42
2022-08-14T11:47:26.617Z,2.67
2022-08-14T11:50:13.318Z,2.50
2022-08-14T11:52:40.470Z,2.70
2022-08-14T11:55:12.758Z,2.67
2022-08-14T11:57:41.223Z,2.90
2022-08-14T12:00:14.720Z,3.00
2022-08-14T12:03:02.793Z,2.45
2022-08-14T12:05:38.829Z,2.60
2022-08-14T12:08:12.128Z,2.40
2022-08-14T12:10:43.320Z,2.53
2022-08-14T12:13:22.346Z,2.55
2022-08-14T12:16:01.113Z,3.08
2022-08-14T12:18:38.937Z,2.85
2022-08-14T12:21:23.781Z,2.70
2022-08-14T12:24:08.446Z,3.05
2022-08-14T12:26:40.775Z,3.47
2022-08-14T12:29:08.632Z,2.75
2022-08-14T12:31:44.828Z,3.15
2022-08-14T12:34:20.405Z,3.47
2022-08-14T12:36:49.768Z,3.40
2022-08-14T12:39:23.812Z,2.95
2022-08-14T12:41:57.009Z,2.63
2022-08-14T12:44:42.861Z,3.42
2022-08-14T12:47:15.112Z,3.08
2022-08-14T12:49:54.225Z,3.28
2022-08-14T12:52:45.200Z,3.10
2022-08-14T12:55:21.843Z,3.00
2022-08-14T12:57:53.186Z,3.20
2022-08-14T13:00:24.044Z,3.13
2022-08-14T13:02:55.459Z,3.00
2022-08-14T13:05:34.912Z,3.20
2022-08-14T13:08:05.457Z,3.03
2022-08-14T13:10:51.219Z,2.60
2022-08-14T13:13:20.211Z,2.75
2022-08-14T13:15:57.348Z,2.80
2022-08-14T13:18:27.643Z,2.60
2022-08-14T13:20:57.941Z,2.63
2022-08-14T13:23:32.764Z,3.33
2022-08-14T13:26:00.413Z,3.55
2022-08-14T13:28:32.950Z,2.60
2022-08-14T13:31:04.391Z,2.60
2022-08-14T13:33:40.648Z,2.80
2022-08-14T13:36:09.329Z,2.70
2022-08-14T13:38:36.877Z,3.08
2022-08-14T13:41:03.914Z,2.80
2022-08-14T13:43:31.417Z,2.85
2022-08-14T13:46:03.797Z,2.92
2022-08-14T13:48:33.244Z,2.75
2022-08-14T13:51:07.919Z,2.80
2022-08-14T13:53:52.621Z,2.92
2022-08-14T13:56:37.206Z,2.50
2022-08-14T13:59:04.338Z,2.63
2022-08-14T14:01:43.736Z,2.80
2022-08-14T14:04:19.710Z,2.70
2022-08-14T14:06:49.131Z,2.80
2022-08-14T14:09:21.605Z,3.20
2022-08-14T14:11:52.972Z,2.95
2022-08-14T14:14:44.489Z,2.90
2022-08-14T14:17:11.398Z,2.95
2022-08-14T14:19:41.269Z,2.70
2022-08-14T14:22:09.827Z,3.03
2022-08-14T14:24:36.658Z,2.72
2022-08-14T14:27:38.872Z,2.67
2022-08-14T14:29:55.714Z,2.92
2022-08-14T14:32:32.094Z,3.15
2022-08-14T14:35:03.425Z,2.90
2022-08-14T14:37:30.693Z,2.55
2022-08-14T14:40:52.933Z,2.63
2022-08-14T14:42:53.345Z,2.88
2022-08-14T14:45:23.846Z,2.83
2022-08-14T14:47:59.374Z,2.70
2022-08-14T14:50:26.524Z,2.97
2022-08-14T14:52:53.949Z,3.08
2022-08-14T14:55:43.283Z,2.42
2022-08-14T14:58:30.376Z,2.63
2022-08-14T15:00:59.874Z,2.95
2022-08-14T15:03:26.609Z,3.13
2022-08-14T15:05:54.244Z,3.10
2022-08-14T15:08:26.873Z,2.42
2022-08-14T15:11:13.645Z,2.75
2022-08-14T15:13:43.023Z,2.42
2022-08-14T15:16:10.073Z,2.50
2022-08-14T15:18:40.182Z,2.67
2022-08-14T15:21:14.398Z,2.67
2022-08-14T15:23:44.000Z,2.65
2022-08-14T15:26:31.359Z,2.60
2022-08-14T15:29:02.089Z,2.72
2022-08-14T15:31:32.743Z,2.90
2022-08-14T15:34:43.693Z,2.30
2022-08-14T15:37:06.542Z,2.45
2022-08-14T15:39:38.510Z,2.50
2022-08-14T15:42:15.833Z,2.60
2022-08-14T15:44:56.771Z,2.42
2022-08-14T15:47:28.705Z,2.55
2022-08-14T15:49:59.287Z,2.65
2022-08-14T15:52:33.105Z,2.43
2022-08-14T15:55:14.649Z,2.60
2022-08-14T15:58:01.665Z,2.30
2022-08-14T16:00:53.048Z,2.08
2022-08-14T16:03:27.205Z,2.15
2022-08-14T16:06:15.423Z,2.67
2022-08-14T16:08:50.284Z,2.88
2022-08-14T16:11:26.802Z,2.53
2022-08-14T16:13:57.661Z,2.60
2022-08-14T16:16:49.141Z,2.80
2022-08-14T16:19:18.769Z,2.63
2022-08-14T16:22:01.295Z,2.53
2022-08-14T16:25:02.788Z,2.42
2022-08-14T16:27:39.170Z,2.63
2022-08-14T16:30:12.164Z,2.53
2022-08-14T16:32:54.909Z,2.75
2022-08-14T16:35:26.485Z,2.63
2022-08-14T16:38:44.690Z,2.50
2022-08-14T16:41:16.935Z,2.40
2022-08-14T16:43:45.689Z,2.60
2022-08-14T16:46:15.359Z,2.53
2022-08-14T16:48:55.377Z,2.83
2022-08-14T16:51:25.241Z,2.50
2022-08-14T16:53:51.986Z,2.35
2022-08-14T16:56:24.179Z,2.20
2022-08-14T16:59:08.169Z,2.47
2022-08-14T17:01:36.579Z,2.33
2022-08-14T17:04:14.885Z,2.28
2022-08-14T17:06:54.427Z,2.55
2022-08-14T17:09:33.444Z,2.38
2022-08-14T17:12:33.362Z,2.38
2022-08-14T17:15:15.093Z,2.33
2022-08-14T17:17:49.913Z,2.00
2022-08-14T17:20:53.076Z,2.22
2022-08-14T17:23:12.086Z,2.22
2022-08-14T17:25:40.363Z,2.03
2022-08-14T17:28:51.475Z,2.60
2022-08-14T17:31:05.954Z,2.25
2022-08-14T17:33:44.412Z,2.40
2022-08-14T17:36:22.505Z,2.47
2022-08-14T17:39:11.857Z,2.15
2022-08-14T17:41:43.465Z,1.88
2022-08-14T17:44:33.927Z,2.22
2022-08-14T17:47:13.479Z,2.20
2022-08-14T17:49:47.420Z,2.30
2022-08-14T17:52:34.682Z,2.22
2022-08-14T17:55:12.776Z,2.15
2022-08-14T17:57:58.219Z,2.35
2022-08-14T18:00:26.230Z,1.92
2022-08-14T18:02:54.015Z,2.30
2022-08-14T18:05:23.367Z,2.10
2022-08-14T18:08:33.879Z,2.20
2022-08-14T18:10:57.829Z,2.55
2022-08-14T18:13:49.866Z,1.90
2022-08-14T18:16:19.697Z,1.90
2022-08-14T18:18:48.475Z,2.15
2022-08-14T18:21:40.674Z,1.90
2022-08-14T18:24:02.176Z,1.85
2022-08-14T18:26:36.490Z,1.70
2022-08-14T18:29:14.959Z,2.22
2022-08-14T18:31:45.138Z,2.03
2022-08-14T18:34:31.888Z,1.88
2022-08-14T18:37:13.888Z,1.80
2022-08-14T18:40:01.333Z,2.05
2022-08-14T18:42:33.350Z,1.80
2022-08-14T18:45:01.885Z,2.20
2022-08-14T18:48:03.275Z,2.30
2022-08-14T18:50:31.012Z,1.88
2022-08-14T18:53:10.984Z,2.22
2022-08-14T18:55:37.779Z,1.95
2022-08-14T18:58:31.664Z,1.70
2022-08-14T19:01:02.024Z,2.00
2022-08-14T19:03:36.320Z,2.10
2022-08-14T19:06:10.661Z,2.05
2022-08-14T19:08:48.389Z,1.95
2022-08-14T19:11:39.489Z,1.92
2022-08-14T19:14:07.829Z,2.13
2022-08-14T19:16:36.872Z,1.50
2022-08-14T19:19:09.130Z,1.90
2022-08-14T19:21:43.439Z,2.10
2022-08-14T19:24:27.555Z,1.95
2022-08-14T19:27:19.166Z,1.83
2022-08-14T19:29:51.336Z,1.90
2022-08-14T19:32:40.791Z,1.80
2022-08-14T19:35:49.315Z,1.65
2022-08-14T19:38:53.442Z,2.05
2022-08-14T19:41:29.604Z,2.20
2022-08-14T19:44:31.629Z,1.80
2022-08-14T19:50:30.216Z,2.00
2022-08-14T19:52:31.058Z,2.03
2022-08-14T19:55:14.844Z,1.95
2022-08-14T19:57:44.175Z,2.10
2022-08-14T20:00:29.341Z,1.95
2022-08-14T20:03:11.256Z,2.08
2022-08-14T20:05:45.759Z,1.80
2022-08-14T20:11:02.420Z,1.67
2022-08-14T20:11:20.481Z,1.60
2022-08-14T20:13:57.771Z,1.80
2022-08-14T20:16:31.884Z,1.60
2022-08-14T20:19:09.493Z,1.63
2022-08-14T20:21:37.022Z,1.80
2022-08-14T20:24:32.456Z,1.80
2022-08-14T20:27:33.606Z,1.80
2022-08-14T20:30:37.610Z,1.50
2022-08-14T20:33:10.952Z,1.88
2022-08-14T20:35:44.435Z,1.75
2022-08-14T20:38:29.182Z,1.50
2022-08-14T20:40:59.763Z,1.80
2022-08-14T20:43:53.079Z,1.70
2022-08-14T20:46:29.548Z,1.60
2022-08-14T20:49:19.174Z,2.00
2022-08-14T20:52:00.206Z,1.70
2022-08-14T20:54:36.397Z,1.55
2022-08-14T20:57:09.545Z,1.88
2022-08-14T20:59:43.316Z,1.40
2022-08-14T21:02:30.472Z,1.88
2022-08-14T21:05:16.712Z,1.80
2022-08-14T21:07:50.434Z,1.60
2022-08-14T21:10:36.407Z,1.45
2022-08-14T21:13:26.521Z,1.60
2022-08-14T21:15:57.621Z,1.83
2022-08-14T21:18:33.502Z,1.52
2022-08-14T21:21:07.016Z,1.88
2022-08-14T21:23:54.361Z,1.90
2022-08-14T21:26:50.548Z,1.92
2022-08-14T21:29:11.330Z,1.60
2022-08-14T21:31:38.841Z,1.70
2022-08-14T21:34:27.145Z,1.77
2022-08-14T21:36:54.392Z,1.80
2022-08-14T21:39:22.980Z,1.50
2022-08-14T21:41:58.805Z,1.58
2022-08-14T21:44:42.981Z,1.35
2022-08-14T21:47:12.198Z,1.40
2022-08-14T21:49:40.025Z,1.60
2022-08-14T21:52:51.794Z,1.75
2022-08-14T21:55:00.141Z,1.77
2022-08-14T21:58:46.074Z,1.60
2022-08-14T22:00:35.364Z,1.50
2022-08-14T22:03:05.610Z,1.50
2022-08-14T22:05:32.371Z,1.40
2022-08-14T22:07:59.237Z,1.52
2022-08-14T22:10:29.822Z,1.65
2022-08-14T22:13:01.136Z,1.17
2022-08-14T22:15:29.265Z,1.50
2022-08-14T22:17:58.212Z,1.60
2022-08-14T22:20:29.183Z,1.83
2022-08-14T22:23:00.743Z,1.45
2022-08-14T22:25:33.562Z,1.40
2022-08-14T22:28:04.154Z,1.38
2022-08-14T22:30:31.278Z,1.70
2022-08-14T22:33:00.156Z,1.67
2022-08-14T22:35:28.392Z,1.38
2022-08-14T22:38:36.074Z,1.58
2022-08-14T22:41:04.573Z,1.60
2022-08-14T22:43:33.551Z,1.50
2022-08-14T22:46:02.712Z,1.55
2022-08-14T22:48:33.018Z,1.50
2022-08-14T22:50:59.633Z,1.70
2022-08-14T22:53:29.293Z,1.45
2022-08-14T22:55:56.690Z,1.55
2022-08-14T22:58:31.588Z,1.52
2022-08-14T23:01:02.413Z,1.50
2022-08-14T23:03:34.076Z,1.60
2022-08-14T23:06:02.029Z,1.50
2022-08-14T23:09:01.396Z,1.40
2022-08-14T23:11:15.426Z,1.60
2022-08-14T23:13:46.087Z,1.60
2022-08-14T23:16:19.808Z,1.40
2022-08-14T23:18:54.218Z,1.35
2022-08-14T23:21:24.596Z,1.63
2022-08-14T23:23:55.084Z,1.50
2022-08-14T23:26:49.448Z,1.55
2022-08-14T23:29:15.661Z,1.67
2022-08-14T23:31:44.657Z,1.50
2022-08-14T23:34:20.572Z,1.50
2022-08-14T23:36:54.288Z,1.30
2022-08-14T23:39:30.312Z,1.40
2022-08-14T23:42:02.415Z,1.35
2022-08-14T23:44:32.236Z,1.42
2022-08-14T23:47:11.539Z,1.40
2022-08-14T23:50:00.567Z,1.08
2022-08-14T23:52:50.426Z,1.67
2022-08-14T23:55:17.173Z,1.52
2022-08-14T23:57:58.020Z,1.58
